createdAt,value
2022-09-10T00:02:10.486Z,18.58
2022-09-10T00:04:37.283Z,18.57
2022-09-10T00:07:04.177Z,18.55
2022-09-10T00:09:30.850Z,18.53
2022-09-10T00:11:58.458Z,18.51
2022-09-10T00:14:25.224Z,18.57
2022-09-10T00:16:52.215Z,18.58
2022-09-10T00:19:19.723Z,18.58
2022-09-10T00:21:46.606Z,18.57
2022-09-10T00:24:14.290Z,18.55
2022-09-10T00:26:41.379Z,18.54
2022-09-10T00:29:11.515Z,18.55
2022-09-10T00:31:38.869Z,18.55
2022-09-10T00:34:07.175Z,18.60
2022-09-10T00:36:37.449Z,18.63
2022-09-10T00:39:14.225Z,18.64
2022-09-10T00:41:43.193Z,18.63
2022-09-10T00:44:39.719Z,18.61
2022-09-10T00:47:13.199Z,18.60
2022-09-10T00:49:46.605Z,18.59
2022-09-10T00:52:17.201Z,18.58
2022-09-10T00:54:47.182Z,18.63
2022-09-10T00:57:23.651Z,18.64
2022-09-10T00:59:59.427Z,18.64
2022-09-10T01:02:26.277Z,18.63
2022-09-10T01:04:55.712Z,18.62
2022-09-10T01:07:24.245Z,18.62
2022-09-10T01:09:50.958Z,18.61
2022-09-10T01:13:00.868Z,18.61
2022-09-10T01:15:55.372Z,18.65
2022-09-10T01:18:43.365Z,18.65
2022-09-10T01:21:16.037Z,18.65
2022-09-10T01:23:54.734Z,18.63
2022-09-10T01:27:06.530Z,18.61
2022-09-10T01:29:33.229Z,18.58
2022-09-10T01:32:17.529Z,18.55
2022-09-10T01:35:03.104Z,18.55
2022-09-10T01:37:31.722Z,18.60
2022-09-10T01:40:00.251Z,18.61
2022-09-10T01:42:28.335Z,18.61
2022-09-10T01:45:01.333Z,18.60
2022-09-10T01:47:52.649Z,18.60
2022-09-10T01:50:39.774Z,18.59
2022-09-10T01:53:31.079Z,18.59
2022-09-10T01:56:04.033Z,18.64
2022-09-10T01:58:49.220Z,18.65
2022-09-10T02:01:40.735Z,18.65
2022-09-10T02:04:14.651Z,18.64
2022-09-10T02:06:45.780Z,18.63
2022-09-10T02:09:15.485Z,18.61
2022-09-10T03:28:37.724Z,18.51
2022-09-10T03:31:16.020Z,18.56
2022-09-10T03:33:42.807Z,18.56
2022-09-10T03:36:13.492Z,18.57
2022-09-10T03:38:41.132Z,18.56
2022-09-10T03:41:08.348Z,18.56
2022-09-10T03:43:35.419Z,18.56
2022-09-10T03:46:02.826Z,18.57
2022-09-10T03:48:30.088Z,18.62
2022-09-10T03:50:56.995Z,18.63
2022-09-10T03:53:23.996Z,18.64
2022-09-10T03:55:52.281Z,18.63
2022-09-10T03:58:19.375Z,18.63
2022-09-10T04:00:46.744Z,18.62
2022-09-10T04:03:14.706Z,18.61
2022-09-10T04:05:45.452Z,18.66
2022-09-10T04:08:13.963Z,18.68
2022-09-10T04:10:42.701Z,18.68
2022-09-10T05:07:08.010Z,18.60
2022-09-10T05:09:34.781Z,18.62
2022-09-10T05:12:01.954Z,18.62
2022-09-10T05:14:29.624Z,18.61
2022-09-10T05:16:57.029Z,18.62
2022-09-10T05:19:23.735Z,18.62
2022-09-10T05:21:50.456Z,18.66
2022-09-10T05:24:17.412Z,18.67
2022-09-10T05:26:45.138Z,18.65
2022-09-10T05:29:12.356Z,18.62
2022-09-10T05:31:39.132Z,18.61
2022-09-10T05:34:05.827Z,18.58
2022-09-10T05:36:32.729Z,18.58
2022-09-10T05:39:00.507Z,18.62
2022-09-10T05:41:28.379Z,18.62
2022-09-10T05:43:55.480Z,18.63
2022-09-10T05:46:24.409Z,18.62
2022-09-10T05:48:53.007Z,18.62
2022-09-10T05:51:20.213Z,18.64
2022-09-10T05:53:46.931Z,18.68
2022-09-10T05:56:13.647Z,18.75
2022-09-10T05:58:40.495Z,18.79
2022-09-10T06:01:07.350Z,18.83
2022-09-10T06:03:34.785Z,18.83
2022-09-10T06:06:01.630Z,18.83
2022-09-10T06:08:28.414Z,18.82
2022-09-10T06:11:00.582Z,18.83
2022-09-10T06:13:28.130Z,18.89
2022-09-10T06:15:54.922Z,18.93
2022-09-10T06:18:22.249Z,18.96
2022-09-10T06:20:49.259Z,18.97
2022-09-10T06:23:16.797Z,18.97
2022-09-10T06:25:44.681Z,18.97
2022-09-10T06:28:12.885Z,18.97
2022-09-10T06:30:39.681Z,19.00
2022-09-10T06:33:06.391Z,19.08
2022-09-10T06:35:33.637Z,19.13
2022-09-10T06:38:00.364Z,19.15
2022-09-10T06:40:27.879Z,19.19
2022-09-10T06:42:54.997Z,19.18
2022-09-10T08:29:35.330Z,20.40
2022-09-10T08:32:02.183Z,20.49
2022-09-10T08:34:30.108Z,20.53
2022-09-10T08:36:57.724Z,20.55
2022-09-10T08:39:24.532Z,20.55
2022-09-10T08:41:56.204Z,20.56
2022-09-10T08:44:28.727Z,20.58
2022-09-10T08:47:21.476Z,20.64
2022-09-10T08:49:59.264Z,20.66
2022-09-10T08:52:34.552Z,20.70
2022-09-10T08:55:20.878Z,20.71
2022-09-10T08:58:09.568Z,20.73
2022-09-10T09:00:40.465Z,20.74
2022-09-10T09:03:22.110Z,20.76
2022-09-10T09:06:00.877Z,20.80
2022-09-10T09:09:06.951Z,20.81
2022-09-10T09:11:49.914Z,20.83
2022-09-10T09:14:39.895Z,20.85
2022-09-10T09:17:38.464Z,20.86
2022-09-10T09:20:15.715Z,20.87
2022-09-10T09:22:48.704Z,20.89
2022-09-10T09:25:28.886Z,20.94
2022-09-10T09:27:57.887Z,20.98
2022-09-10T09:30:59.819Z,21.01
2022-09-10T09:36:45.090Z,21.08
2022-09-10T09:39:32.420Z,21.18
2022-09-10T09:42:23.744Z,21.32
2022-09-10T09:45:07.108Z,21.43
2022-09-10T09:47:42.921Z,21.51
2022-09-10T09:50:17.438Z,21.60
2022-09-10T09:52:57.227Z,21.69
2022-09-10T09:59:34.479Z,21.83
2022-09-10T10:02:58.283Z,21.87
2022-09-10T10:05:32.174Z,21.90
2022-09-10T10:08:18.219Z,21.97
2022-09-10T10:11:01.841Z,22.05
2022-09-10T10:13:50.879Z,22.11
2022-09-10T10:19:40.971Z,22.24
2022-09-10T10:22:19.420Z,22.40
2022-09-10T10:24:51.804Z,22.54
2022-09-10T10:27:21.807Z,22.65
2022-09-10T10:30:44.300Z,22.72
2022-09-10T10:33:22.233Z,22.78
2022-09-10T10:36:15.159Z,22.82
2022-09-10T10:39:27.283Z,22.85
2022-09-10T10:42:46.500Z,22.83
2022-09-10T10:45:37.770Z,22.87
2022-09-10T10:52:31.906Z,22.99
2022-09-10T10:55:52.877Z,22.98
2022-09-10T10:59:00.968Z,22.98
2022-09-10T11:12:21.875Z,23.60
2022-09-10T11:15:01.217Z,23.65
2022-09-10T11:24:55.769Z,23.80
2022-09-10T11:41:23.143Z,23.64
2022-09-10T11:43:53.220Z,23.65
2022-09-10T11:52:16.821Z,23.67
2022-09-10T11:54:52.341Z,23.81
2022-09-10T11:58:30.219Z,23.92
2022-09-10T12:01:37.048Z,23.89
2022-09-10T12:08:46.277Z,23.83
2022-09-10T12:15:57.190Z,23.82
2022-09-10T12:21:37.476Z,24.01
2022-09-10T12:24:33.358Z,24.15
2022-09-10T12:27:14.275Z,24.24
2022-09-10T12:33:32.724Z,24.40
2022-09-10T12:36:04.906Z,24.43
2022-09-10T12:39:08.032Z,24.41
2022-09-10T12:41:37.534Z,24.38
2022-09-10T12:44:36.523Z,24.38
2022-09-10T12:47:15.417Z,24.44
2022-09-10T12:49:54.994Z,24.52
2022-09-10T12:52:34.550Z,24.52
2022-09-10T12:55:43.861Z,24.50
2022-09-10T12:58:46.262Z,24.51
2022-09-10T13:01:15.959Z,24.51
2022-09-10T13:03:59.964Z,24.57
2022-09-10T13:06:48.639Z,24.55
2022-09-10T13:09:31.314Z,24.54
2022-09-10T13:12:18.195Z,24.58
2022-09-10T13:14:54.868Z,24.60
2022-09-10T13:17:40.769Z,24.59
2022-09-10T13:20:14.799Z,24.60
2022-09-10T13:23:04.303Z,24.66
2022-09-10T13:25:45.318Z,24.74
2022-09-10T13:28:30.577Z,24.81
2022-09-10T13:31:31.342Z,24.93
2022-09-10T13:34:15.471Z,24.93
2022-09-10T13:37:25.363Z,24.90
2022-09-10T13:40:31.154Z,24.97
2022-09-10T13:43:06.902Z,25.07
2022-09-10T13:45:50.574Z,25.15
2022-09-10T13:48:51.820Z,25.21
2022-09-10T13:51:54.480Z,25.27
2022-09-10T13:54:47.641Z,25.35
2022-09-10T13:57:41.065Z,25.43
2022-09-10T14:00:25.683Z,25.47
2022-09-10T14:02:55.502Z,25.51
2022-09-10T14:05:44.646Z,25.56
2022-09-10T14:08:24.849Z,25.63
2022-09-10T14:11:27.543Z,25.66
2022-09-10T14:13:56.041Z,25.73
2022-09-10T14:16:50.450Z,25.80
2022-09-10T14:19:31.639Z,25.86
2022-09-10T14:21:58.644Z,25.92
2022-09-10T14:24:54.072Z,25.95
2022-09-10T14:27:25.793Z,25.96
2022-09-10T14:29:58.167Z,25.94
2022-09-10T14:32:40.408Z,25.95
2022-09-10T14:35:45.406Z,25.94
2022-09-10T14:38:30.314Z,25.94
2022-09-10T14:41:19.009Z,25.93
2022-09-10T14:43:46.680Z,25.94
2022-09-10T14:47:10.626Z,25.93
2022-09-10T14:49:39.720Z,25.90
2022-09-10T14:52:06.817Z,25.89
2022-09-10T14:54:35.036Z,25.89
2022-09-10T14:57:04.974Z,25.87
2022-09-10T14:59:36.504Z,25.86
2022-09-10T15:02:13.170Z,25.85
2022-09-10T15:04:40.105Z,25.87
2022-09-10T15:07:09.842Z,25.88
2022-09-10T15:09:37.565Z,25.90
2022-09-10T15:12:23.080Z,25.89
2022-09-10T15:14:51.082Z,25.89
2022-09-10T15:17:18.665Z,25.89
2022-09-10T15:19:55.503Z,25.90
2022-09-10T15:22:27.686Z,25.87
2022-09-10T15:25:11.678Z,25.85
2022-09-10T15:27:39.006Z,25.83
2022-09-10T15:30:06.717Z,25.81
2022-09-10T15:32:33.544Z,25.81
2022-09-10T15:35:00.457Z,25.82
2022-09-10T15:37:43.259Z,25.82
2022-09-10T15:40:11.212Z,25.80
2022-09-10T15:42:37.937Z,25.77
2022-09-10T15:45:05.060Z,25.75
2022-09-10T15:47:34.425Z,25.73
2022-09-10T15:50:06.297Z,25.71
2022-09-10T15:52:33.164Z,25.68
2022-09-10T15:55:04.535Z,25.65
2022-09-10T15:57:31.694Z,25.60
2022-09-10T15:59:58.522Z,25.56
2022-09-10T16:02:25.315Z,25.51
2022-09-10T16:04:52.167Z,25.45
2022-09-10T16:07:18.904Z,25.41
2022-09-10T16:09:48.848Z,25.38
2022-09-10T16:12:17.484Z,25.35
2022-09-10T16:14:46.625Z,25.31
2022-09-10T16:17:23.547Z,25.25
2022-09-10T16:19:51.932Z,25.22
2022-09-10T16:22:23.122Z,25.19
2022-09-10T16:24:49.914Z,25.17
2022-09-10T16:27:17.945Z,25.14
2022-09-10T16:29:45.518Z,25.11
2022-09-10T16:32:15.127Z,25.08
2022-09-10T16:34:43.510Z,25.05
2022-09-10T16:37:10.258Z,25.04
2022-09-10T16:39:37.525Z,25.01
2022-09-10T16:42:04.367Z,24.98
2022-09-10T16:44:32.251Z,24.95
2022-09-10T16:46:59.753Z,24.94
2022-09-10T16:49:27.650Z,24.93
2022-09-10T16:51:54.617Z,24.89
2022-09-10T16:54:22.668Z,24.85
2022-09-10T16:56:58.770Z,24.81
2022-09-10T16:59:43.153Z,24.78
2022-09-10T17:02:22.235Z,24.75
2022-09-10T17:08:40.581Z,24.64
2022-09-10T17:11:08.992Z,24.64
2022-09-10T17:29:04.204Z,24.51
2022-09-10T17:31:31.459Z,24.48
2022-09-10T17:33:59.475Z,24.45
2022-09-10T17:36:26.949Z,24.39
2022-09-10T17:38:55.144Z,24.32
2022-09-10T17:41:23.761Z,24.21
2022-09-10T17:43:51.247Z,24.04
2022-09-10T17:46:21.500Z,23.95
2022-09-10T17:48:48.978Z,23.88
2022-09-10T17:51:21.814Z,23.84
2022-09-10T17:53:49.283Z,23.80
2022-09-10T17:56:19.365Z,23.77
2022-09-10T17:58:49.927Z,23.75
2022-09-10T18:01:32.243Z,23.72
2022-09-10T18:03:59.316Z,23.71
2022-09-10T18:06:29.348Z,23.69
2022-09-10T18:09:03.849Z,23.68
2022-09-10T18:11:32.720Z,23.65
2022-09-10T18:14:04.532Z,23.59
2022-09-10T18:16:34.211Z,23.54
2022-09-10T18:19:12.864Z,23.50
2022-09-10T18:21:41.968Z,23.46
2022-09-10T18:24:19.215Z,23.43
2022-09-10T18:26:48.326Z,23.41
2022-09-10T18:29:18.114Z,23.37
2022-09-10T18:31:49.680Z,23.35
2022-09-10T18:34:23.228Z,23.30
2022-09-10T18:36:54.709Z,23.27
2022-09-10T18:39:22.948Z,23.23
2022-09-10T18:41:50.054Z,23.19
2022-09-10T18:44:31.614Z,23.16
2022-09-10T18:46:58.576Z,23.11
2022-09-10T18:49:26.310Z,23.06
2022-09-10T18:51:55.367Z,23.05
2022-09-10T18:54:23.509Z,23.03
2022-09-10T18:56:51.304Z,23.01
2022-09-10T18:59:20.390Z,22.97
2022-09-10T19:01:49.256Z,22.92
2022-09-10T19:04:28.521Z,22.87
2022-09-10T19:07:07.772Z,22.82
2022-09-10T19:09:34.843Z,22.77
2022-09-10T19:13:01.946Z,22.75
2022-09-10T19:15:28.175Z,22.70
2022-09-10T19:17:55.015Z,22.68
2022-09-10T19:20:22.021Z,22.65
2022-09-10T19:22:48.802Z,22.65
2022-09-10T19:25:15.561Z,22.63
2022-09-10T19:27:42.405Z,22.62
2022-09-10T19:30:09.851Z,22.61
2022-09-10T19:32:37.534Z,22.56
2022-09-10T19:35:04.609Z,22.54
2022-09-10T19:37:37.419Z,22.51
2022-09-10T19:40:04.536Z,22.49
2022-09-10T19:42:31.262Z,22.45
2022-09-10T19:45:16.167Z,22.42
2022-09-10T19:48:08.988Z,22.40
2022-09-10T19:50:35.781Z,22.37
2022-09-10T19:55:43.591Z,22.26
2022-09-10T19:58:10.885Z,22.23
2022-09-10T20:00:46.817Z,22.22
2022-09-10T20:03:37.366Z,22.21
2022-09-10T20:06:04.749Z,22.21
2022-09-10T20:08:35.587Z,22.26
2022-09-10T20:11:06.110Z,22.27
2022-09-10T20:13:37.286Z,22.24
2022-09-10T20:16:09.121Z,22.22
2022-09-10T20:18:39.210Z,22.19
2022-09-10T20:21:22.126Z,22.17
2022-09-10T20:23:51.689Z,22.15
2022-09-10T20:26:22.621Z,22.14
2022-09-10T20:29:01.608Z,22.12
2022-09-10T20:31:31.556Z,22.10
2022-09-10T20:34:00.866Z,22.07
2022-09-10T20:36:29.233Z,22.05
2022-09-10T20:38:56.455Z,22.03
2022-09-10T20:41:24.501Z,22.01
2022-09-10T20:43:53.327Z,21.99
2022-09-10T20:46:22.335Z,21.97
2022-09-10T20:48:51.203Z,21.94
2022-09-10T20:51:19.432Z,21.92
2022-09-10T20:53:46.918Z,21.89
2022-09-10T20:56:18.656Z,21.87
2022-09-10T20:58:46.852Z,21.84
2022-09-10T21:01:19.163Z,21.83
2022-09-10T21:03:47.866Z,21.81
2022-09-10T21:06:18.560Z,21.84
2022-09-10T21:08:47.837Z,21.86
2022-09-10T21:11:17.818Z,21.87
2022-09-10T21:13:53.699Z,21.85
2022-09-10T21:16:30.327Z,21.83
2022-09-10T21:19:02.147Z,21.82
2022-09-10T21:21:32.007Z,21.79
2022-09-10T21:24:04.940Z,21.77
2022-09-10T21:26:35.258Z,21.75
2022-09-10T21:29:04.116Z,21.73
2022-09-10T21:31:31.699Z,21.71
2022-09-10T21:34:03.059Z,21.68
2022-09-10T21:36:32.724Z,21.65
2022-09-10T21:39:02.140Z,21.61
2022-09-10T21:41:33.434Z,21.57
2022-09-10T21:44:03.545Z,21.54
2022-09-10T21:46:32.348Z,21.50
2022-09-10T21:48:59.794Z,21.47
2022-09-10T21:51:26.658Z,21.44
2022-09-10T21:53:55.113Z,21.42
2022-09-10T21:56:23.071Z,21.39
2022-09-10T21:58:49.916Z,21.36
2022-09-10T22:01:19.707Z,21.33
2022-09-10T22:03:48.039Z,21.30
2022-09-10T22:06:24.788Z,21.28
2022-09-10T22:08:58.751Z,21.26
2022-09-10T22:11:34.762Z,21.32
2022-09-10T22:14:22.933Z,21.32
2022-09-10T22:16:50.058Z,21.29
2022-09-10T22:19:22.717Z,21.27
2022-09-10T22:21:50.340Z,21.26
2022-09-10T22:24:19.168Z,21.22
2022-09-10T22:26:47.497Z,21.17
2022-09-10T22:29:19.899Z,21.11
2022-09-10T22:31:47.109Z,21.05
2022-09-10T22:34:15.720Z,21.01
2022-09-10T22:36:44.334Z,20.97
2022-09-10T22:39:14.072Z,20.93
2022-09-10T22:41:41.886Z,20.90
2022-09-10T22:44:09.501Z,20.88
2022-09-10T22:46:37.300Z,20.85
2022-09-10T22:49:05.425Z,20.82
2022-09-10T22:51:36.157Z,20.79
2022-09-10T22:54:04.938Z,20.76
2022-09-10T22:56:31.994Z,20.74
2022-09-10T22:59:00.544Z,20.78
2022-09-10T23:01:34.483Z,20.79
2022-09-10T23:04:03.050Z,20.82
2022-09-10T23:06:32.320Z,20.81
2022-09-10T23:09:06.537Z,20.81
2022-09-10T23:11:34.619Z,20.78
2022-09-10T23:14:04.019Z,20.75
2022-09-10T23:16:36.834Z,20.72
2022-09-10T23:19:06.776Z,20.66
2022-09-10T23:21:35.231Z,20.60
2022-09-10T23:24:07.605Z,20.55
2022-09-10T23:26:34.594Z,20.51
2022-09-10T23:29:04.517Z,20.48
2022-09-10T23:31:33.696Z,20.46
2022-09-10T23:34:03.752Z,20.44
2022-09-10T23:36:36.097Z,20.41
2022-09-10T23:39:06.793Z,20.37
2022-09-10T23:41:34.734Z,20.33
2022-09-10T23:44:01.562Z,20.27
2022-09-10T23:46:28.305Z,20.23
2022-09-10T23:48:55.099Z,20.20
2022-09-10T23:51:22.867Z,20.23
2022-09-10T23:53:50.242Z,20.22
2022-09-10T23:56:19.208Z,20.21
2022-09-10T23:58:46.514Z,20.15
